Time;durP1;ratioP1;P1;durP2;ratioP2;P2;SDS_P1;SDS_P2;PMS_P1;PMS_P2;Temp;Humidity;BMP_temperature;BMP_pressure;BME280_temperature;BME280_humidity;BME280_pressure;Samples;Min_cycle;Max_cycle;Signal;HPM_P1;HPM_P2
2023/12/01 00:02:23;;;;;;;25.33;14.03;;;3.70;84.60;;;;;;5012265;28;20433;-78
2023/12/01 00:04:48;;;;;;;26.93;15.50;;;3.80;84.30;;;;;;5018684;28;20292;-76
2023/12/01 00:07:14;;;;;;;26.20;15.53;;;3.80;84.30;;;;;;5018118;28;20520;-77
2023/12/01 00:09:40;;;;;;;26.23;14.57;;;3.90;84.40;;;;;;5013816;28;20213;-77
2023/12/01 00:12:06;;;;;;;25.60;15.20;;;4.00;84.60;;;;;;5016997;28;20192;-78
2023/12/01 00:14:31;;;;;;;23.27;14.37;;;4.00;84.60;;;;;;5018244;28;21013;-78
2023/12/01 00:16:57;;;;;;;21.57;12.97;;;4.10;84.60;;;;;;5017022;28;20467;-77
2023/12/01 00:19:23;;;;;;;25.70;15.70;;;4.20;84.40;;;;;;5012968;28;20212;-76
2023/12/01 00:21:48;;;;;;;27.33;14.17;;;4.10;84.10;;;;;;5015205;28;20208;-77
2023/12/01 00:24:14;;;;;;;26.40;15.50;;;4.10;83.70;;;;;;5014958;28;20265;-77
2023/12/01 00:26:41;;;;;;;23.63;14.70;;;4.00;83.10;;;;;;5029394;28;20193;-77
2023/12/01 00:29:07;;;;;;;27.53;16.03;;;4.00;83.10;;;;;;5018389;28;20428;-76
2023/12/01 00:31:33;;;;;;;28.43;16.03;;;4.00;83.10;;;;;;5021791;28;20527;-77
2023/12/01 00:33:59;;;;;;;27.07;15.27;;;4.00;83.10;;;;;;5019480;28;20186;-76
2023/12/01 00:36:25;;;;;;;27.83;15.50;;;4.00;83.00;;;;;;5020798;28;20589;-77
2023/12/01 00:38:50;;;;;;;28.97;16.30;;;4.10;83.00;;;;;;5010773;28;20424;-77
2023/12/01 00:41:16;;;;;;;28.37;14.27;;;4.10;82.70;;;;;;5008818;28;20245;-77
2023/12/01 00:43:42;;;;;;;27.47;15.90;;;4.10;82.50;;;;;;5011045;28;20428;-77
2023/12/01 00:46:07;;;;;;;27.07;14.37;;;4.10;82.50;;;;;;5017432;28;20210;-76
2023/12/01 00:48:33;;;;;;;30.40;15.30;;;4.10;82.70;;;;;;5019387;28;20602;-77
2023/12/01 00:50:59;;;;;;;25.73;13.90;;;4.20;82.70;;;;;;5013113;28;20300;-76
2023/12/01 00:53:24;;;;;;;26.03;15.27;;;4.20;82.50;;;;;;5020961;28;20834;-77
2023/12/01 00:55:50;;;;;;;24.57;14.10;;;4.20;82.40;;;;;;5015034;28;20189;-79
2023/12/01 00:58:15;;;;;;;27.17;14.87;;;4.20;82.40;;;;;;5023067;28;20228;-76
2023/12/01 01:00:41;;;;;;;27.13;15.40;;;4.10;82.20;;;;;;5022458;28;20316;-77
2023/12/01 01:03:06;;;;;;;30.20;15.27;;;4.10;82.50;;;;;;5018193;28;20730;-77
2023/12/01 01:05:32;;;;;;;33.87;14.83;;;4.10;82.70;;;;;;5016522;28;20204;-76
2023/12/01 01:07:58;;;;;;;26.33;16.67;;;4.10;83.00;;;;;;5019172;28;20190;-78
2023/12/01 01:10:24;;;;;;;24.37;15.30;;;4.10;83.10;;;;;;5008898;28;20556;-79
2023/12/01 01:12:50;;;;;;;33.63;15.07;;;3.80;83.40;;;;;;5015329;28;20200;-78
2023/12/01 01:15:15;;;;;;;29.00;16.03;;;3.90;84.00;;;;;;5020346;28;20435;-77
2023/12/01 01:17:41;;;;;;;29.93;15.73;;;3.90;84.10;;;;;;5024142;28;20389;-79
2023/12/01 01:20:07;;;;;;;30.27;17.00;;;3.90;84.10;;;;;;5007932;28;20224;-77
2023/12/01 01:22:33;;;;;;;31.00;16.43;;;3.90;84.30;;;;;;5013205;28;20182;-79
2023/12/01 01:24:59;;;;;;;30.60;17.40;;;3.90;84.40;;;;;;5018507;28;20424;-77
2023/12/01 01:27:24;;;;;;;30.40;16.53;;;3.80;84.30;;;;;;5016188;28;20190;-78
2023/12/01 01:29:50;;;;;;;32.03;17.27;;;3.70;84.30;;;;;;5015312;28;20514;-78
2023/12/01 01:32:15;;;;;;;31.13;15.87;;;3.60;84.60;;;;;;5015435;28;20964;-76
2023/12/01 01:34:41;;;;;;;30.07;16.50;;;3.70;84.70;;;;;;5020217;28;20219;-78
2023/12/01 01:37:07;;;;;;;28.93;16.57;;;3.70;85.00;;;;;;5014529;28;20292;-77
2023/12/01 01:39:34;;;;;;;37.38;17.30;;;3.40;85.00;;;;;;5011607;28;20206;-79
2023/12/01 01:42:00;;;;;;;28.83;17.00;;;3.20;85.20;;;;;;5018528;28;20649;-77
2023/12/01 01:44:27;;;;;;;32.70;15.93;;;3.10;85.70;;;;;;5020360;28;20300;-76
2023/12/01 01:46:54;;;;;;;29.98;15.77;;;3.20;86.00;;;;;;5010936;28;21694;-78
2023/12/01 01:49:27;;;;;;;28.63;17.00;;;3.30;86.30;;;;;;5007398;28;20276;-78
2023/12/01 01:51:58;;;;;;;32.17;15.67;;;3.40;86.20;;;;;;5014302;28;20216;-76
2023/12/01 01:54:25;;;;;;;28.53;15.63;;;3.50;86.30;;;;;;5014054;28;21095;-79
2023/12/01 01:56:51;;;;;;;32.20;18.25;;;3.50;86.30;;;;;;5017597;28;20464;-81
2023/12/01 01:59:21;;;;;;;27.08;16.15;;;3.60;86.30;;;;;;5010689;28;20693;-78
2023/12/01 02:01:50;;;;;;;30.85;17.33;;;3.60;86.20;;;;;;5017609;28;20256;-78
2023/12/01 02:04:19;;;;;;;31.52;17.48;;;3.50;86.00;;;;;;5018684;28;20262;-77
2023/12/01 02:06:48;;;;;;;29.75;16.02;;;3.40;85.90;;;;;;5021846;28;20186;-77
2023/12/01 02:09:14;;;;;;;33.10;17.10;;;3.30;86.00;;;;;;5016589;28;20209;-77
2023/12/01 02:11:43;;;;;;;33.03;17.58;;;3.20;85.90;;;;;;5020351;28;20295;-78
2023/12/01 02:14:09;;;;;;;31.20;16.83;;;3.10;85.90;;;;;;5026321;28;20263;-79
2023/12/01 02:16:35;;;;;;;29.07;17.50;;;3.10;86.20;;;;;;5027668;28;20194;-77
2023/12/01 02:19:00;;;;;;;32.20;16.67;;;3.20;86.30;;;;;;5021623;28;20178;-77
2023/12/01 02:21:34;;;;;;;30.63;16.43;;;3.30;86.50;;;;;;5016669;28;20464;-77
2023/12/01 02:24:00;;;;;;;31.87;17.73;;;3.40;86.50;;;;;;5009711;28;20190;-78
2023/12/01 02:26:25;;;;;;;33.77;17.50;;;3.50;86.30;;;;;;5011743;28;20421;-78
2023/12/01 02:28:51;;;;;;;26.87;15.80;;;3.50;86.30;;;;;;5009985;28;20328;-78
2023/12/01 02:31:17;;;;;;;27.80;15.83;;;3.50;86.20;;;;;;5010761;28;20206;-77
2023/12/01 02:33:42;;;;;;;28.90;15.40;;;3.50;86.00;;;;;;5012746;28;20193;-76
2023/12/01 02:36:11;;;;;;;34.40;17.30;;;3.50;86.00;;;;;;5017291;28;20214;-77
2023/12/01 02:38:36;;;;;;;33.67;16.83;;;3.50;86.00;;;;;;5018014;28;20186;-77
2023/12/01 02:41:02;;;;;;;28.33;16.67;;;3.50;86.00;;;;;;5008803;28;20476;-76
2023/12/01 02:43:28;;;;;;;29.27;16.73;;;3.50;86.00;;;;;;5014737;28;20428;-77
2023/12/01 02:45:54;;;;;;;32.33;16.25;;;3.50;86.00;;;;;;5010080;28;20216;-76
2023/12/01 02:48:20;;;;;;;31.17;17.47;;;3.50;85.90;;;;;;5009651;28;20726;-77
2023/12/01 02:50:45;;;;;;;26.50;15.47;;;3.40;85.70;;;;;;5003588;28;20210;-76
2023/12/01 02:53:11;;;;;;;35.10;17.93;;;3.30;85.90;;;;;;5010994;28;20186;-79
2023/12/01 02:55:37;;;;;;;34.97;18.33;;;3.20;85.90;;;;;;5011047;28;20201;-77
2023/12/01 02:58:02;;;;;;;27.37;16.80;;;3.20;86.00;;;;;;5009000;28;20469;-77
2023/12/01 03:00:29;;;;;;;32.10;16.83;;;3.20;86.20;;;;;;5006099;28;20653;-75
2023/12/01 03:02:55;;;;;;;27.83;16.00;;;3.20;86.20;;;;;;5004268;28;20212;-77
2023/12/01 03:05:21;;;;;;;27.97;17.33;;;3.30;86.50;;;;;;5005905;28;20453;-75
2023/12/01 03:07:48;;;;;;;35.97;18.43;;;3.30;86.30;;;;;;5009230;28;20424;-77
2023/12/01 03:10:14;;;;;;;31.27;17.23;;;3.30;86.30;;;;;;5006788;28;20473;-77
2023/12/01 03:12:41;;;;;;;33.20;17.33;;;3.30;86.30;;;;;;5012667;28;20409;-77
2023/12/01 03:15:10;;;;;;;33.40;18.27;;;3.30;86.30;;;;;;5016413;28;20405;-80
2023/12/01 03:17:36;;;;;;;35.10;20.33;;;3.20;86.20;;;;;;5016712;28;20532;-79
2023/12/01 03:20:08;;;;;;;28.70;16.60;;;3.10;86.00;;;;;;5015053;28;20694;-77
2023/12/01 03:22:33;;;;;;;30.17;16.63;;;3.00;86.00;;;;;;5021221;28;20417;-78
2023/12/01 03:24:59;;;;;;;32.90;16.63;;;3.10;86.20;;;;;;5024937;28;20186;-78
2023/12/01 03:27:25;;;;;;;32.80;16.73;;;3.00;86.00;;;;;;5017212;28;20456;-77
2023/12/01 03:29:52;;;;;;;31.63;17.10;;;3.00;85.90;;;;;;5010923;28;20281;-78
2023/12/01 03:32:18;;;;;;;29.05;16.90;;;2.90;85.90;;;;;;5014687;28;20190;-78
2023/12/01 03:34:44;;;;;;;29.02;16.45;;;2.80;86.00;;;;;;5014099;28;20681;-78
2023/12/01 03:37:09;;;;;;;35.73;20.27;;;2.90;86.20;;;;;;5015037;28;20202;-79
2023/12/01 03:39:35;;;;;;;34.43;18.40;;;2.80;86.60;;;;;;5015170;28;20234;-79
2023/12/01 03:42:00;;;;;;;33.50;19.40;;;2.70;86.60;;;;;;5015971;28;20194;-79
2023/12/01 03:44:26;;;;;;;40.47;21.90;;;2.60;86.80;;;;;;5016946;28;20261;-79
2023/12/01 03:46:52;;;;;;;35.40;19.53;;;2.40;86.90;;;;;;5016769;28;20193;-78
2023/12/01 03:49:18;;;;;;;32.40;19.23;;;2.50;87.10;;;;;;5017754;28;20734;-78
2023/12/01 03:51:44;;;;;;;38.13;18.73;;;2.60;87.40;;;;;;5025992;28;20182;-78
2023/12/01 03:54:09;;;;;;;31.93;18.20;;;2.70;87.40;;;;;;5014897;28;20185;-76
2023/12/01 03:56:37;;;;;;;37.43;18.73;;;2.70;87.40;;;;;;5015358;28;20472;-76
2023/12/01 03:59:03;;;;;;;32.20;18.73;;;2.60;87.40;;;;;;5009691;28;20186;-79
2023/12/01 04:01:29;;;;;;;31.75;18.45;;;2.60;87.40;;;;;;5009092;28;20678;-77
2023/12/01 04:03:54;;;;;;;32.17;18.10;;;2.70;87.40;;;;;;5012357;28;20260;-77
2023/12/01 04:06:20;;;;;;;31.47;17.17;;;2.70;87.40;;;;;;5008119;28;21028;-76
2023/12/01 04:08:46;;;;;;;30.63;18.13;;;2.70;87.40;;;;;;5011850;28;20177;-77
2023/12/01 04:11:11;;;;;;;37.77;18.97;;;2.70;87.40;;;;;;5015001;28;20288;-76
2023/12/01 04:13:37;;;;;;;32.03;18.30;;;2.70;87.30;;;;;;5026748;28;20584;-76
2023/12/01 04:16:03;;;;;;;33.40;18.40;;;2.80;87.40;;;;;;5022742;28;20186;-80
2023/12/01 04:18:29;;;;;;;36.77;19.23;;;2.80;87.40;;;;;;5017319;28;20214;-78
2023/12/01 04:20:58;;;;;;;34.65;18.40;;;2.80;87.40;;;;;;5017997;28;20550;-79
2023/12/01 04:23:24;;;;;;;37.70;18.70;;;2.80;87.40;;;;;;5024590;28;20189;-77
2023/12/01 04:25:50;;;;;;;40.00;21.70;;;2.80;87.30;;;;;;5022133;28;20174;-79
2023/12/01 04:28:16;;;;;;;38.03;20.38;;;2.70;87.30;;;;;;5031203;28;20182;-76
2023/12/01 04:30:43;;;;;;;34.00;19.27;;;2.40;87.30;;;;;;5021125;28;20197;-77
2023/12/01 04:33:08;;;;;;;36.25;20.20;;;2.40;87.40;;;;;;5027685;28;20180;-77
2023/12/01 04:35:35;;;;;;;35.20;18.67;;;2.50;87.40;;;;;;5024442;28;20190;-78
2023/12/01 04:38:05;;;;;;;33.65;19.48;;;2.60;87.40;;;;;;5032856;28;20465;-79
2023/12/01 04:40:31;;;;;;;33.92;19.20;;;2.60;87.60;;;;;;5019764;28;20253;-79
2023/12/01 04:42:58;;;;;;;32.13;20.02;;;2.70;87.60;;;;;;5030433;28;20239;-79
2023/12/01 04:45:26;;;;;;;34.05;19.60;;;2.70;87.60;;;;;;5027334;28;20239;-80
2023/12/01 04:47:53;;;;;;;34.20;20.33;;;2.70;87.60;;;;;;5019701;28;20288;-78
2023/12/01 04:50:21;;;;;;;32.70;19.30;;;2.70;87.60;;;;;;5016177;28;20277;-78
2023/12/01 04:52:54;;;;;;;33.63;19.00;;;2.80;87.60;;;;;;5014780;28;20539;-77
2023/12/01 04:55:22;;;;;;;34.55;19.33;;;2.70;87.60;;;;;;5013303;28;20516;-77
2023/12/01 04:57:48;;;;;;;33.38;19.95;;;2.80;87.60;;;;;;5014291;28;20248;-76
2023/12/01 05:00:20;;;;;;;38.33;20.15;;;2.80;87.40;;;;;;5017276;28;20755;-78
2023/12/01 05:02:51;;;;;;;36.40;19.55;;;2.80;87.40;;;;;;5013478;28;20185;-77
2023/12/01 05:05:22;;;;;;;36.75;20.63;;;2.80;87.40;;;;;;5019414;28;20220;-77
2023/12/01 05:07:52;;;;;;;32.72;18.92;;;2.80;87.40;;;;;;5010084;28;20704;-79
2023/12/01 05:10:22;;;;;;;29.00;17.75;;;2.80;87.40;;;;;;5009830;28;20260;-77
2023/12/01 05:12:54;;;;;;;29.35;18.73;;;2.80;87.40;;;;;;5015881;28;20177;-77
2023/12/01 05:15:24;;;;;;;29.53;17.30;;;2.80;87.30;;;;;;5022196;28;20651;-76
2023/12/01 05:18:07;;;;;;;27.75;16.65;;;2.80;87.30;;;;;;5018522;28;20546;-79
2023/12/01 05:20:33;;;;;;;30.53;17.23;;;2.80;87.30;;;;;;5016191;28;20228;-78
2023/12/01 05:23:00;;;;;;;29.58;17.10;;;2.80;87.30;;;;;;5018832;28;20450;-78
2023/12/01 05:25:27;;;;;;;32.53;19.80;;;2.80;87.30;;;;;;5019331;28;20189;-77
2023/12/01 05:27:55;;;;;;;29.40;16.67;;;2.90;87.30;;;;;;5022885;28;20523;-79
2023/12/01 05:30:23;;;;;;;29.80;18.10;;;2.90;87.10;;;;;;5016846;28;20448;-76
2023/12/01 05:32:51;;;;;;;26.35;16.60;;;2.80;87.00;;;;;;5024601;28;20421;-77
2023/12/01 05:35:18;;;;;;;27.65;16.00;;;2.80;87.00;;;;;;5021593;28;20189;-78
2023/12/01 05:37:48;;;;;;;33.17;18.05;;;2.80;87.00;;;;;;5019903;28;20228;-78
2023/12/01 05:40:27;;;;;;;29.20;17.48;;;2.80;86.90;;;;;;5013414;28;20267;-77
2023/12/01 05:42:54;;;;;;;29.00;17.13;;;2.70;86.80;;;;;;5009816;28;20431;-76
2023/12/01 05:45:26;;;;;;;30.83;17.43;;;2.60;86.90;;;;;;5017538;28;20804;-77
2023/12/01 05:47:52;;;;;;;29.27;17.13;;;2.60;86.90;;;;;;5013722;28;20444;-77
2023/12/01 05:50:24;;;;;;;34.50;17.73;;;2.60;87.10;;;;;;5009828;28;20588;-77
2023/12/01 05:52:51;;;;;;;34.15;18.05;;;2.60;87.30;;;;;;5012732;28;20182;-79
2023/12/01 05:55:25;;;;;;;28.10;16.58;;;2.50;87.30;;;;;;5014010;28;20628;-78
2023/12/01 05:57:52;;;;;;;27.15;16.27;;;2.50;87.40;;;;;;5020219;28;20213;-79
2023/12/01 06:00:20;;;;;;;25.83;14.88;;;2.50;87.40;;;;;;5013595;28;20224;-78
2023/12/01 06:02:47;;;;;;;28.60;16.30;;;2.60;87.60;;;;;;5018281;28;20181;-78
2023/12/01 06:05:15;;;;;;;25.53;15.40;;;2.60;87.40;;;;;;5019433;28;20477;-79
2023/12/01 06:07:42;;;;;;;31.17;17.27;;;2.60;87.40;;;;;;5020182;28;20424;-78
2023/12/01 06:10:09;;;;;;;26.63;15.75;;;2.60;87.30;;;;;;5010983;28;20693;-78
2023/12/01 06:12:37;;;;;;;26.90;14.90;;;2.50;87.30;;;;;;5018328;28;20198;-78
2023/12/01 06:15:13;;;;;;;29.05;17.23;;;2.50;87.40;;;;;;5021133;28;20186;-77
2023/12/01 06:17:43;;;;;;;28.85;15.48;;;2.60;87.60;;;;;;5030909;28;20246;-79
2023/12/01 06:20:19;;;;;;;30.33;16.55;;;2.60;87.60;;;;;;5035667;28;20205;-80
2023/12/01 06:22:46;;;;;;;26.83;15.70;;;2.70;87.70;;;;;;5030678;28;20177;-81
2023/12/01 06:25:12;;;;;;;32.30;17.10;;;2.70;87.70;;;;;;5036829;28;20194;-79
2023/12/01 06:27:40;;;;;;;29.80;16.85;;;2.70;87.60;;;;;;5031756;28;20266;-79
2023/12/01 06:30:11;;;;;;;22.07;15.13;;;2.50;87.60;;;;;;5027489;28;20723;-79
2023/12/01 06:32:46;;;;;;;29.92;16.02;;;2.50;87.60;;;;;;5032387;28;20432;-81
2023/12/01 06:35:14;;;;;;;29.88;16.17;;;2.50;87.70;;;;;;5036527;28;20236;-81
2023/12/01 06:37:40;;;;;;;27.67;16.35;;;2.60;87.70;;;;;;5029878;28;20219;-81
2023/12/01 06:40:17;;;;;;;31.08;15.75;;;2.60;87.80;;;;;;5026112;28;20206;-82
2023/12/01 06:42:53;;;;;;;26.73;15.43;;;2.50;87.70;;;;;;5055460;28;20268;-79
2023/12/01 06:45:26;;;;;;;29.55;16.77;;;2.50;87.80;;;;;;5029250;28;20222;-80
2023/12/01 06:47:52;;;;;;;28.02;15.90;;;2.60;88.00;;;;;;5031456;28;20257;-81
2023/12/01 06:50:19;;;;;;;28.10;15.40;;;2.50;87.80;;;;;;5018553;28;20202;-81
2023/12/01 06:52:47;;;;;;;29.90;15.77;;;2.50;88.00;;;;;;5032472;28;20229;-80
2023/12/01 06:55:13;;;;;;;23.55;14.65;;;2.60;88.00;;;;;;5023973;28;20287;-79
2023/12/01 06:57:41;;;;;;;25.33;14.63;;;2.60;87.70;;;;;;5032581;28;20217;-79
2023/12/01 07:00:09;;;;;;;26.95;16.00;;;2.60;87.60;;;;;;5029824;28;20222;-79
2023/12/01 07:02:38;;;;;;;23.80;14.73;;;2.60;87.60;;;;;;5033673;28;20220;-81
2023/12/01 07:05:05;;;;;;;24.98;14.05;;;2.70;87.60;;;;;;5032189;28;20550;-80
2023/12/01 07:07:37;;;;;;;24.85;14.57;;;2.60;87.60;;;;;;5038401;28;20190;-80
2023/12/01 07:10:05;;;;;;;28.25;17.17;;;2.40;87.70;;;;;;5023441;28;20213;-81
2023/12/01 07:12:30;;;;;;;25.55;14.73;;;2.30;87.70;;;;;;5033316;28;20244;-79
2023/12/01 07:14:56;;;;;;;31.03;16.67;;;2.20;87.60;;;;;;5028731;28;20189;-80
2023/12/01 07:17:21;;;;;;;27.87;15.50;;;2.30;87.80;;;;;;5032884;28;20248;-79
2023/12/01 07:19:48;;;;;;;25.70;15.40;;;2.30;88.00;;;;;;5028965;28;20236;-79
2023/12/01 07:22:14;;;;;;;24.27;14.98;;;2.40;88.10;;;;;;5026579;28;20193;-80
2023/12/01 07:24:40;;;;;;;22.63;14.30;;;2.50;88.10;;;;;;5028213;28;20210;-79
2023/12/01 07:27:09;;;;;;;24.58;15.10;;;2.60;88.10;;;;;;5030117;28;20178;-82
2023/12/01 07:29:37;;;;;;;27.90;15.30;;;2.60;88.10;;;;;;5031262;28;20213;-80
2023/12/01 07:32:03;;;;;;;27.27;15.15;;;2.60;88.00;;;;;;5030955;28;20186;-79
2023/12/01 07:34:30;;;;;;;25.43;14.30;;;2.70;88.00;;;;;;5031916;28;20209;-81
2023/12/01 07:36:55;;;;;;;26.13;14.18;;;2.70;88.00;;;;;;5027629;28;20977;-80
2023/12/01 07:39:23;;;;;;;22.70;14.20;;;2.70;88.00;;;;;;5032268;28;20197;-78
2023/12/01 07:41:49;;;;;;;26.45;14.02;;;2.70;88.00;;;;;;5040507;28;20189;-80
2023/12/01 07:44:15;;;;;;;26.27;16.75;;;2.80;87.80;;;;;;5029148;28;20646;-80
2023/12/01 07:46:41;;;;;;;29.77;16.10;;;2.80;87.80;;;;;;5027722;28;20256;-81
2023/12/01 07:49:11;;;;;;;22.25;14.32;;;2.80;87.70;;;;;;5020001;28;20246;-79
2023/12/01 07:51:39;;;;;;;27.67;14.07;;;2.70;87.70;;;;;;5022976;28;20202;-80
2023/12/01 07:54:06;;;;;;;22.88;13.45;;;2.80;87.70;;;;;;5029313;28;20254;-81
2023/12/01 07:56:31;;;;;;;31.15;15.98;;;2.80;87.70;;;;;;5025382;28;20256;-78
2023/12/01 07:58:57;;;;;;;29.70;15.60;;;2.90;87.70;;;;;;5037548;28;20962;-79
2023/12/01 08:01:24;;;;;;;28.85;15.20;;;2.90;87.70;;;;;;5026646;28;20252;-81
2023/12/01 08:03:51;;;;;;;28.90;14.77;;;2.90;87.40;;;;;;5032857;28;20186;-81
2023/12/01 08:06:16;;;;;;;30.67;15.50;;;2.90;87.40;;;;;;5031679;28;20424;-78
2023/12/01 08:08:45;;;;;;;28.33;16.57;;;2.90;87.40;;;;;;5038597;28;20424;-80
2023/12/01 08:11:10;;;;;;;29.77;15.27;;;2.90;87.30;;;;;;5024514;28;20213;-79
2023/12/01 08:13:36;;;;;;;26.17;13.50;;;3.00;87.30;;;;;;5033250;28;20236;-80
2023/12/01 08:16:01;;;;;;;31.30;14.50;;;3.00;87.30;;;;;;5032304;28;20185;-80
2023/12/01 08:18:28;;;;;;;26.00;15.50;;;3.00;87.10;;;;;;5034142;28;20237;-79
2023/12/01 08:20:54;;;;;;;30.80;15.63;;;2.90;87.30;;;;;;5024099;28;20289;-79
2023/12/01 08:23:19;;;;;;;26.07;15.50;;;2.90;87.30;;;;;;5029143;28;20417;-80
2023/12/01 08:25:46;;;;;;;33.70;15.77;;;2.90;87.30;;;;;;5023107;28;20693;-79
2023/12/01 08:28:12;;;;;;;36.65;18.15;;;2.90;87.30;;;;;;5024228;28;20533;-81
2023/12/01 08:30:37;;;;;;;32.70;17.40;;;3.00;87.30;;;;;;5023312;28;20362;-80
2023/12/01 08:33:03;;;;;;;28.87;15.37;;;2.80;87.30;;;;;;5029757;28;20194;-79
2023/12/01 08:35:29;;;;;;;36.53;14.45;;;2.70;87.10;;;;;;5031168;28;20201;-80
2023/12/01 08:37:56;;;;;;;29.13;15.63;;;2.70;87.30;;;;;;5024121;28;20210;-80
2023/12/01 08:40:23;;;;;;;28.90;15.27;;;2.80;87.30;;;;;;5029370;28;20217;-79
2023/12/01 08:42:52;;;;;;;31.70;15.88;;;2.80;87.30;;;;;;5026946;28;20182;-81
2023/12/01 08:45:18;;;;;;;29.15;14.55;;;2.80;87.10;;;;;;5029150;28;20308;-81
2023/12/01 08:47:44;;;;;;;31.77;16.30;;;2.80;87.10;;;;;;5024487;28;20204;-80
2023/12/01 08:50:17;;;;;;;36.07;15.70;;;2.80;87.00;;;;;;5036385;28;20211;-80
2023/12/01 08:52:43;;;;;;;29.73;14.48;;;2.90;87.10;;;;;;5028195;28;20439;-81
2023/12/01 08:55:10;;;;;;;26.30;13.70;;;2.90;87.00;;;;;;5030426;28;20185;-80
2023/12/01 08:57:37;;;;;;;32.75;15.93;;;2.90;87.10;;;;;;5025312;28;21014;-80
2023/12/01 09:00:03;;;;;;;30.25;15.38;;;3.00;87.10;;;;;;5024266;28;20210;-81
2023/12/01 09:02:33;;;;;;;30.58;15.95;;;2.90;87.10;;;;;;5023775;28;20186;-81
2023/12/01 09:04:58;;;;;;;29.48;14.63;;;3.00;87.30;;;;;;5027247;28;20185;-79
2023/12/01 09:07:25;;;;;;;35.72;16.98;;;3.00;87.10;;;;;;5017259;28;20194;-81
2023/12/01 09:09:50;;;;;;;27.95;15.35;;;2.90;87.10;;;;;;5024713;28;20692;-79
2023/12/01 09:12:16;;;;;;;31.57;15.77;;;2.60;86.90;;;;;;5028091;28;20262;-80
2023/12/01 09:14:42;;;;;;;30.87;16.13;;;2.50;87.00;;;;;;5030953;28;20185;-80
2023/12/01 09:17:08;;;;;;;32.27;15.67;;;2.70;87.30;;;;;;5022039;28;20214;-79
2023/12/01 09:19:39;;;;;;;27.98;15.27;;;2.80;87.40;;;;;;5023477;28;20205;-81
2023/12/01 09:22:05;;;;;;;31.65;16.10;;;2.80;87.60;;;;;;5026601;28;20264;-80
2023/12/01 09:24:33;;;;;;;31.50;16.20;;;3.00;87.70;;;;;;5034010;28;20547;-80
2023/12/01 09:26:59;;;;;;;31.95;14.95;;;3.10;87.70;;;;;;5026410;28;20189;-79
2023/12/01 09:29:24;;;;;;;24.27;15.00;;;3.10;87.30;;;;;;5025367;28;20233;-79
2023/12/01 09:31:52;;;;;;;31.93;15.10;;;3.20;87.30;;;;;;5026209;28;20208;-80
2023/12/01 09:34:19;;;;;;;37.25;19.08;;;3.20;86.90;;;;;;5027344;28;20437;-80
2023/12/01 09:36:45;;;;;;;36.88;18.10;;;3.20;86.80;;;;;;5023451;28;20234;-80
2023/12/01 09:39:11;;;;;;;28.57;14.77;;;3.20;86.60;;;;;;5022265;28;20245;-80
2023/12/01 09:41:38;;;;;;;34.70;17.23;;;3.20;86.50;;;;;;5033482;28;20200;-80
2023/12/01 09:44:05;;;;;;;32.30;17.67;;;2.80;86.00;;;;;;5023419;28;20433;-78
2023/12/01 09:46:34;;;;;;;34.25;17.10;;;2.50;86.50;;;;;;5024926;28;20224;-79
2023/12/01 09:49:04;;;;;;;38.45;20.13;;;2.30;86.90;;;;;;5020275;28;20186;-80
2023/12/01 09:51:34;;;;;;;35.60;18.23;;;2.20;87.40;;;;;;5036509;28;20193;-79
2023/12/01 09:54:01;;;;;;;35.30;19.48;;;2.30;87.80;;;;;;5029361;28;20181;-81
2023/12/01 09:56:27;;;;;;;33.47;17.80;;;2.40;88.10;;;;;;5026672;28;20257;-81
2023/12/01 09:58:54;;;;;;;34.67;18.43;;;2.60;88.10;;;;;;5021184;28;20252;-80
2023/12/01 10:01:21;;;;;;;28.70;16.58;;;2.70;88.10;;;;;;5022249;28;20629;-81
2023/12/01 10:03:46;;;;;;;32.00;16.83;;;2.70;88.10;;;;;;5019952;28;20189;-80
2023/12/01 10:06:13;;;;;;;29.77;16.47;;;2.70;88.00;;;;;;5022481;28;20272;-81
2023/12/01 10:08:41;;;;;;;32.70;16.70;;;2.80;87.80;;;;;;5023660;28;20220;-80
2023/12/01 10:11:24;;;;;;;33.40;16.15;;;2.80;87.70;;;;;;5020692;28;20337;-80
2023/12/01 10:13:51;;;;;;;31.75;16.88;;;2.90;87.70;;;;;;5030156;28;20190;-79
2023/12/01 10:16:21;;;;;;;36.05;17.73;;;3.00;87.70;;;;;;5036126;28;20189;-78
2023/12/01 10:19:00;;;;;;;31.05;15.27;;;3.00;87.40;;;;;;5041275;28;20169;-80
2023/12/01 10:21:42;;;;;;;34.65;17.80;;;3.10;87.40;;;;;;5033356;28;20205;-79
2023/12/01 10:24:13;;;;;;;32.67;16.90;;;3.10;87.30;;;;;;5042160;28;20181;-79
2023/12/01 10:26:46;;;;;;;34.92;15.82;;;3.10;87.10;;;;;;5035668;28;20165;-79
2023/12/01 10:29:30;;;;;;;41.20;21.75;;;3.10;86.90;;;;;;5027131;28;20256;-80
2023/12/01 10:32:07;;;;;;;44.45;20.92;;;2.50;86.60;;;;;;5022552;28;20208;-78
2023/12/01 10:34:33;;;;;;;47.38;19.55;;;2.30;87.00;;;;;;5023839;28;20272;-79
2023/12/01 10:37:00;;;;;;;34.72;17.65;;;2.30;87.60;;;;;;5023056;28;20208;-80
2023/12/01 10:39:30;;;;;;;35.15;19.13;;;2.30;87.80;;;;;;5020895;28;20205;-78
2023/12/01 10:41:57;;;;;;;36.85;17.65;;;2.40;88.10;;;;;;5029128;28;20182;-80
2023/12/01 10:44:26;;;;;;;38.58;18.52;;;2.30;88.10;;;;;;5024671;28;20194;-80
2023/12/01 10:46:52;;;;;;;42.95;20.58;;;2.20;88.10;;;;;;5026480;28;20196;-80
2023/12/01 10:49:19;;;;;;;41.38;19.35;;;2.20;88.30;;;;;;5020998;28;20186;-80
2023/12/01 10:51:46;;;;;;;48.17;22.50;;;2.30;88.60;;;;;;5019943;28;20197;-80
2023/12/01 10:54:13;;;;;;;41.53;18.75;;;2.30;88.70;;;;;;5020353;28;20245;-79
2023/12/01 10:56:52;;;;;;;41.17;20.02;;;2.40;88.90;;;;;;5027404;28;20225;-80
2023/12/01 10:59:22;;;;;;;46.42;19.85;;;2.40;88.70;;;;;;5019548;28;20502;-78
2023/12/01 11:01:49;;;;;;;38.75;18.52;;;2.60;88.90;;;;;;5022676;28;20174;-79
2023/12/01 11:04:22;;;;;;;34.92;17.75;;;2.60;88.90;;;;;;5022584;28;20196;-80
2023/12/01 11:07:17;;;;;;;40.17;18.58;;;2.60;88.40;;;;;;5022479;28;20216;-80
2023/12/01 11:09:58;;;;;;;38.30;20.20;;;2.60;88.30;;;;;;4998008;28;20236;-79
2023/12/01 11:12:56;;;;;;;39.70;19.10;;;2.50;88.10;;;;;;5018787;28;20198;-79
2023/12/01 11:15:27;;;;;;;50.47;24.25;;;2.50;88.10;;;;;;5021594;28;20201;-80
2023/12/01 11:17:55;;;;;;;42.83;19.80;;;2.30;88.00;;;;;;5013786;28;20217;-80
2023/12/01 11:20:29;;;;;;;47.45;21.42;;;2.10;88.00;;;;;;5019633;28;20210;-81
2023/12/01 11:23:07;;;;;;;43.88;20.02;;;2.10;88.10;;;;;;5013434;28;20198;-80
2023/12/01 11:25:57;;;;;;;40.53;19.98;;;2.20;88.40;;;;;;5024233;28;20193;-79
2023/12/01 11:28:42;;;;;;;48.83;20.67;;;2.30;88.60;;;;;;5016240;28;20297;-79
2023/12/01 11:33:52;;;;;;;40.08;19.33;;;2.50;88.70;;;;;;5021925;28;20181;-79
2023/12/01 11:36:33;;;;;;;39.70;19.20;;;2.60;88.70;;;;;;5021755;28;20240;-79
2023/12/01 11:41:34;;;;;;;41.80;20.23;;;2.60;88.40;;;;;;5020780;28;20279;-80
2023/12/01 11:44:07;;;;;;;49.75;20.42;;;2.60;88.30;;;;;;5025353;28;20186;-80
2023/12/01 11:46:33;;;;;;;46.22;21.15;;;2.60;88.30;;;;;;5026630;28;20285;-78
2023/12/01 11:48:59;;;;;;;53.80;24.35;;;2.40;88.10;;;;;;5030909;28;20182;-78
2023/12/01 11:51:26;;;;;;;54.23;24.97;;;2.40;88.10;;;;;;5019313;28;20790;-80
2023/12/01 11:54:02;;;;;;;67.82;26.85;;;2.30;88.10;;;;;;5034358;28;20191;-77
2023/12/01 11:56:31;;;;;;;64.63;26.17;;;2.20;88.40;;;;;;5036385;28;20201;-80
2023/12/01 11:58:57;;;;;;;62.53;26.60;;;2.10;88.60;;;;;;5027523;28;20501;-79
2023/12/01 12:01:24;;;;;;;72.07;27.53;;;2.00;89.00;;;;;;5021772;28;20308;-79
2023/12/01 12:03:53;;;;;;;68.20;26.98;;;1.90;89.30;;;;;;5022760;28;20555;-80
2023/12/01 12:06:20;;;;;;;65.50;26.08;;;1.90;89.50;;;;;;5023244;28;20201;-79
2023/12/01 12:08:47;;;;;;;62.03;28.10;;;2.00;89.70;;;;;;5021242;28;20717;-80
2023/12/01 12:11:12;;;;;;;55.92;25.38;;;2.00;89.90;;;;;;5031144;28;20198;-80
2023/12/01 12:13:38;;;;;;;70.50;29.40;;;2.10;90.00;;;;;;5041005;28;20194;-78
2023/12/01 12:16:04;;;;;;;63.40;26.43;;;2.00;90.00;;;;;;5025508;28;20208;-80
2023/12/01 12:18:31;;;;;;;56.10;25.25;;;2.10;90.10;;;;;;5025118;28;20220;-81
2023/12/01 12:21:04;;;;;;;65.60;25.90;;;2.20;90.10;;;;;;5028223;28;20252;-81
2023/12/01 12:23:36;;;;;;;59.45;26.33;;;2.40;90.10;;;;;;5026928;28;20204;-81
2023/12/01 12:26:15;;;;;;;64.70;24.95;;;2.30;90.00;;;;;;5034879;28;20193;-81
2023/12/01 12:28:43;;;;;;;59.10;24.90;;;2.30;90.00;;;;;;5018272;28;20551;-80
2023/12/01 12:31:09;;;;;;;68.78;27.10;;;2.50;89.90;;;;;;5028284;28;20202;-81
2023/12/01 12:33:36;;;;;;;62.28;25.30;;;2.30;89.60;;;;;;5024403;28;20221;-79
2023/12/01 12:36:02;;;;;;;66.35;29.23;;;2.20;89.50;;;;;;5031651;28;20194;-80
2023/12/01 12:38:27;;;;;;;60.00;27.13;;;2.10;89.50;;;;;;5033999;28;20205;-81
2023/12/01 12:40:54;;;;;;;63.60;27.87;;;2.10;89.50;;;;;;5030877;28;20461;-79
2023/12/01 12:43:20;;;;;;;64.68;28.27;;;2.20;89.70;;;;;;5029008;28;20192;-82
2023/12/01 12:45:51;;;;;;;65.70;29.85;;;2.10;89.60;;;;;;5034012;28;20182;-79